.
WxDataArchive / Data Records for 2015-07-07
2015-07-06 July 2015 2015-07-08

Data Records for Tuesday, 07 July 2015

Time	Temp	Chill	HIndex	Humid	Dewpt	 Wind 	HiWind	WindDir	Rain 	Barom
-----	----	-----	------	-----	-----	------	------	-------	-----	-----
00:00	76.5	76.5	78.1	72	66.8	0	1	0	0.00	29.872 
00:05	76.5	76.5	78.1	73	67.2	0	0	---	0.00	29.872 
00:10	76.3	76.3	77.8	73	67.0	0	0	---	0.00	29.872 
00:15	76.1	76.1	77.5	74	67.2	0	1	0	0.00	29.866 
00:20	76.1	76.1	77.5	75	67.6	0	3	0	0.00	29.866 
00:25	76.1	76.1	77.5	75	67.6	0	3	22	0.00	29.866 
00:30	76.0	76.0	77.4	75	67.5	0	0	---	0.00	29.861 
00:35	76.0	76.0	77.3	76	67.9	0	1	22	0.00	29.861 
00:40	76.0	76.0	77.3	76	67.9	0	2	22	0.00	29.861 
00:45	76.0	76.0	77.2	77	68.3	0	1	22	0.00	29.859 
00:50	75.8	75.8	77.0	77	68.1	0	1	0	0.00	29.859 
00:55	75.8	75.8	77.0	77	68.1	0	0	---	0.00	29.859 
01:00	75.8	75.8	76.9	78	68.4	0	2	0	0.00	29.861 
01:05	75.6	75.6	76.6	78	68.2	0	1	0	0.00	29.861 
01:10	75.6	75.6	76.6	78	68.2	0	1	0	0.00	29.861 
01:15	75.6	75.6	76.5	79	68.6	0	1	0	0.00	29.851 
01:20	75.4	75.4	76.2	79	68.4	0	3	0	0.00	29.851 
01:25	75.4	75.4	76.2	79	68.4	0	1	338	0.00	29.851 
01:30	75.4	75.4	76.2	79	68.4	0	1	338	0.00	29.846 
01:35	75.4	75.4	76.1	80	68.8	0	1	338	0.00	29.846 
01:40	75.4	75.4	76.1	80	68.8	0	1	338	0.00	29.846 
01:45	75.3	75.3	76.0	80	68.7	0	0	---	0.00	29.844 
01:50	75.3	75.3	75.9	81	69.1	0	1	338	0.00	29.844 
01:55	75.3	75.3	75.9	81	69.1	0	1	338	0.00	29.844 
02:00	75.1	75.1	75.6	81	68.9	0	0	---	0.00	29.845 
02:05	75.1	75.1	75.6	81	68.9	0	1	338	0.00	29.845 
02:10	75.1	75.1	75.6	81	68.9	0	1	338	0.00	29.845 
02:15	75.1	75.1	75.6	81	68.9	0	1	338	0.00	29.845 
02:20	75.1	75.1	75.5	82	69.2	0	0	---	0.00	29.845 
02:25	75.1	75.1	75.5	82	69.2	0	1	338	0.00	29.845 
02:30	74.9	74.9	74.9	82	69.0	0	0	---	0.00	29.843 
02:35	74.9	74.9	74.9	82	69.0	0	4	338	0.00	29.843 
02:40	74.9	74.9	74.9	83	69.4	0	1	338	0.00	29.843 
02:45	74.9	74.9	74.9	83	69.4	0	1	338	0.00	29.842 
02:50	74.9	74.9	74.9	83	69.4	0	1	338	0.00	29.842 
02:55	74.9	74.9	74.9	83	69.4	0	1	338	0.00	29.842 
03:00	74.9	74.9	74.9	83	69.4	0	1	338	0.00	29.832 
03:05	74.9	74.9	74.9	84	69.7	0	1	338	0.00	29.832 
03:10	74.9	74.9	74.9	84	69.7	0	1	338	0.00	29.832 
03:15	74.9	74.9	74.9	84	69.7	0	1	338	0.00	29.833 
03:20	74.9	74.9	74.9	84	69.7	0	0	---	0.00	29.833 
03:25	74.9	74.9	74.9	84	69.7	0	0	---	0.00	29.833 
03:30	74.9	74.9	74.9	84	69.7	0	1	338	0.00	29.836 
03:35	74.9	74.9	74.9	84	69.7	0	0	---	0.00	29.836 
03:40	74.9	74.9	74.9	84	69.7	0	2	338	0.00	29.836 
03:45	75.1	75.1	75.2	84	69.9	0	1	338	0.00	29.833 
03:50	75.1	75.1	75.2	84	69.9	0	1	338	0.00	29.833 
03:55	75.1	75.1	75.2	84	69.9	0	1	338	0.00	29.833 
04:00	75.1	75.1	75.0	85	70.3	0	1	338	0.00	29.836 
04:05	75.1	75.1	75.0	85	70.3	0	2	338	0.00	29.836 
04:10	75.1	75.1	75.0	85	70.3	0	1	338	0.00	29.836 
04:15	75.1	75.1	75.0	85	70.3	0	1	338	0.00	29.831 
04:20	75.1	75.1	75.0	85	70.3	0	1	338	0.00	29.831 
04:25	75.1	75.1	75.0	85	70.3	0	1	338	0.00	29.831 
04:30	75.1	75.1	75.0	85	70.3	0	1	338	0.00	29.829 
04:35	75.1	75.1	75.0	85	70.3	0	2	338	0.00	29.829 
04:40	75.1	75.1	74.9	86	70.6	0	3	338	0.00	29.829 
04:45	75.1	75.1	74.9	86	70.6	0	2	338	0.00	29.827 
04:50	75.1	75.1	74.9	86	70.6	0	2	338	0.00	29.827 
04:55	75.1	75.1	74.9	86	70.6	0	2	338	0.00	29.827 
05:00	75.1	75.1	74.9	86	70.6	0	2	338	0.00	29.823 
05:05	75.1	75.1	74.9	86	70.6	0	2	338	0.00	29.823 
05:10	75.1	75.1	74.9	86	70.6	0	2	248	0.00	29.823 
05:15	75.1	75.1	74.9	86	70.6	0	2	248	0.00	29.819 
05:20	75.1	75.1	74.7	87	71.0	0	4	248	0.00	29.819 
05:25	75.3	75.3	75.1	87	71.2	0	1	315	0.00	29.819 
05:30	75.3	75.3	75.1	87	71.2	0	2	292	0.00	29.815 
05:35	75.3	75.3	75.1	87	71.2	0	2	292	0.00	29.815 
05:40	75.3	75.3	75.1	87	71.2	0	1	292	0.00	29.815 
05:45	75.3	75.3	75.1	87	71.2	0	1	292	0.00	29.820 
05:50	75.3	75.3	75.1	87	71.2	0	1	292	0.00	29.820 
05:55	75.3	75.3	75.1	87	71.2	0	2	292	0.00	29.820 
06:00	75.3	75.3	75.1	87	71.2	0	1	292	0.00	29.819 
06:05	75.3	75.3	75.1	87	71.2	0	2	292	0.00	29.819 
06:10	75.3	75.3	75.1	87	71.2	0	2	270	0.00	29.819 
06:15	75.3	75.3	75.1	87	71.2	0	3	270	0.00	29.815 
06:20	75.3	75.3	75.1	87	71.2	0	1	270	0.00	29.815 
06:25	75.3	75.3	75.1	87	71.2	0	2	270	0.00	29.815 
06:30	75.3	75.3	75.1	87	71.2	0	2	270	0.00	29.814 
06:35	75.3	75.3	75.1	87	71.2	0	2	270	0.00	29.814 
06:40	75.4	75.4	75.3	87	71.2	0	2	270	0.00	29.814 
06:45	75.4	75.4	75.3	87	71.2	0	2	270	0.00	29.813 
06:50	75.6	75.6	75.6	87	71.4	0	1	270	0.00	29.813 
06:55	75.6	75.6	75.6	87	71.4	0	3	270	0.00	29.813 
07:00	75.8	75.8	76.0	87	71.6	0	4	270	0.00	29.815 
07:05	75.8	75.8	76.1	86	71.3	0	3	270	0.00	29.815 
07:10	75.8	75.8	76.1	86	71.3	0	2	292	0.00	29.815 
07:15	76.0	76.0	76.5	86	71.5	0	1	292	0.00	29.821 
07:20	75.8	75.8	76.1	86	71.3	0	3	270	0.00	29.821 
07:25	76.0	76.0	76.5	86	71.5	0	2	270	0.00	29.821 
07:30	76.0	76.0	76.5	86	71.5	0	2	270	0.00	29.828 
07:35	76.0	76.0	76.5	86	71.5	0	3	315	0.00	29.828 
07:40	75.8	75.8	76.1	86	71.3	0	1	315	0.00	29.828 
07:45	75.8	75.8	76.1	86	71.3	0	3	315	0.00	29.829 
07:50	76.0	76.0	76.5	86	71.5	0	2	315	0.00	29.829 
07:55	76.0	76.0	76.5	86	71.5	0	2	315	0.00	29.829 
08:00	76.0	76.0	76.5	86	71.5	0	1	315	0.00	29.830 
08:05	76.0	76.0	76.5	86	71.5	0	2	315	0.00	29.830 
08:10	76.0	76.0	76.5	86	71.5	0	2	315	0.00	29.830 
08:15	76.1	76.1	76.6	86	71.6	0	1	315	0.00	29.829 
08:20	76.0	76.0	76.5	86	71.5	0	2	315	0.00	29.829 
08:25	76.1	76.1	76.6	86	71.6	0	1	315	0.00	29.829 
08:30	76.1	76.1	76.6	86	71.6	0	1	315	0.00	29.828 
08:35	76.1	76.1	76.6	86	71.6	0	2	315	0.00	29.828 
08:40	76.1	76.1	76.6	86	71.6	0	1	315	0.00	29.828 
08:45	76.1	76.1	76.6	86	71.6	0	1	315	0.00	29.824 
08:50	76.3	76.3	77.0	86	71.8	0	2	0	0.00	29.824 
08:55	76.3	76.3	77.0	86	71.8	0	1	0	0.00	29.824 
09:00	76.3	76.3	77.0	86	71.8	0	2	338	0.00	29.818 
09:05	76.5	76.5	77.4	86	72.0	0	1	338	0.00	29.818 
09:10	76.5	76.5	77.4	86	72.0	0	1	338	0.00	29.818 
09:15	76.7	76.7	77.8	86	72.2	0	2	338	0.00	29.821 
09:20	76.7	76.7	77.8	86	72.2	0	1	338	0.00	29.821 
09:25	76.3	76.3	77.2	84	71.1	2	6	292	0.00	29.821 
09:30	75.3	75.3	75.9	81	69.1	3	6	292	0.00	29.835 
09:35	74.6	74.6	74.6	82	68.7	1	5	292	0.00	29.835 
09:40	73.9	73.9	73.9	84	68.7	1	4	292	0.01	29.835 
09:45	73.0	73.0	73.0	86	68.6	2	5	270	0.14	29.842 
09:50	72.3	72.3	72.3	88	68.5	0	2	270	0.06	29.842 
09:55	71.8	71.8	71.8	89	68.4	0	2	270	0.04	29.842 
10:00	71.5	71.5	71.5	90	68.4	0	1	270	0.01	29.835 
10:05	71.5	71.5	71.5	91	68.7	0	0	---	0.00	29.835 
10:10	71.3	71.3	71.3	91	68.5	0	0	---	0.00	29.835 
10:15	71.3	71.3	71.3	92	68.8	0	0	---	0.00	29.836 
10:20	71.5	71.5	71.5	92	69.0	0	1	270	0.00	29.836 
10:25	71.5	71.5	71.5	92	69.0	0	0	---	0.00	29.836 
10:30	71.5	71.5	71.5	92	69.0	0	0	---	0.01	29.836 
10:35	71.5	71.5	71.5	93	69.4	0	1	270	0.01	29.836 
10:40	71.5	71.5	71.5	93	69.4	0	1	270	0.01	29.836 
10:45	71.5	71.5	71.5	93	69.4	0	1	270	0.01	29.840 
10:50	71.6	71.6	71.6	93	69.5	0	0	---	0.00	29.840 
10:55	71.6	71.6	71.6	93	69.5	0	1	270	0.01	29.840 
11:00	71.8	71.8	71.8	94	70.0	0	1	270	0.00	29.837 
11:05	72.0	72.0	72.0	94	70.2	0	0	---	0.01	29.837 
11:10	72.1	72.1	72.1	94	70.3	0	1	270	0.00	29.837 
11:15	72.3	72.3	72.3	94	70.5	0	0	---	0.00	29.835 
11:20	72.5	72.5	72.5	94	70.7	0	1	270	0.00	29.835 
11:25	72.7	72.7	72.7	94	70.9	0	1	270	0.00	29.835 
11:30	72.7	72.7	72.7	94	70.9	0	1	270	0.00	29.834 
11:35	72.8	72.8	72.8	94	71.0	0	0	---	0.00	29.834 
11:40	72.8	72.8	72.8	94	71.0	0	0	---	0.00	29.834 
11:45	72.8	72.8	72.8	94	71.0	0	0	---	0.00	29.836 
11:50	73.0	73.0	73.0	94	71.2	0	1	270	0.00	29.836 
11:55	73.2	73.2	73.2	94	71.4	0	0	---	0.00	29.836 
12:00	73.0	73.0	73.0	94	71.2	0	1	270	0.00	29.838 
12:05	73.2	73.2	73.2	95	71.7	0	1	270	0.00	29.838 
12:10	73.3	73.3	73.3	95	71.8	0	1	270	0.01	29.838 
12:15	73.3	73.3	73.3	94	71.5	0	1	270	0.00	29.840 
12:20	73.3	73.3	73.3	94	71.5	0	2	270	0.00	29.840 
12:25	73.3	73.3	73.3	95	71.8	0	2	270	0.00	29.840 
12:30	73.3	73.3	73.3	94	71.5	0	3	270	0.00	29.842 
12:35	73.3	73.3	73.3	94	71.5	0	2	270	0.00	29.842 
12:40	73.3	73.3	73.3	94	71.5	0	1	270	0.00	29.842 
12:45	73.2	73.2	73.2	94	71.4	0	1	270	0.00	29.843 
12:50	73.0	73.0	73.0	94	71.2	0	1	270	0.00	29.843 
12:55	73.0	73.0	73.0	94	71.2	0	1	270	0.00	29.843 
13:00	73.2	73.2	73.2	94	71.4	0	0	---	0.00	29.838 
13:05	73.5	73.5	73.5	95	72.0	0	1	135	0.00	29.838 
13:10	73.9	73.9	73.9	94	72.1	0	1	135	0.00	29.838 
13:15	73.9	73.9	73.9	94	72.1	0	1	135	0.00	29.833 
13:20	74.0	74.0	74.0	94	72.2	0	2	135	0.00	29.833 
13:25	74.0	74.0	74.0	94	72.2	0	2	112	0.00	29.833 
13:30	73.9	73.9	73.9	94	72.1	0	1	112	0.00	29.834 
13:35	73.9	73.9	73.9	93	71.7	0	1	112	0.00	29.834 
13:40	74.0	74.0	74.0	94	72.2	0	1	112	0.00	29.834 
13:45	74.0	74.0	74.0	93	71.8	0	1	112	0.00	29.838 
13:50	73.9	73.9	73.9	93	71.7	0	3	112	0.00	29.838 
13:55	73.2	73.2	73.2	92	70.7	2	5	270	0.00	29.838 
14:00	72.3	72.3	72.3	92	69.8	1	4	270	0.00	29.850 
14:05	71.6	71.6	71.6	92	69.1	2	4	292	0.00	29.850 
14:10	71.1	71.1	71.1	92	68.7	2	4	292	0.00	29.850 
14:15	70.6	70.6	70.6	92	68.2	1	3	270	0.01	29.857 
14:20	69.9	69.9	69.9	92	67.5	1	4	292	0.00	29.857 
14:25	69.6	69.6	69.6	92	67.2	1	4	315	0.00	29.857 
14:30	69.6	69.6	69.6	92	67.2	1	3	292	0.00	29.868 
14:35	69.6	69.6	69.6	93	67.5	1	4	292	0.00	29.868 
14:40	69.6	69.6	69.6	93	67.5	1	4	292	0.00	29.868 
14:45	69.4	69.4	69.4	93	67.3	1	4	292	0.00	29.871 
14:50	69.4	69.4	69.4	93	67.3	1	3	292	0.00	29.871 
14:55	69.1	69.1	69.1	92	66.7	1	3	292	0.00	29.871 
15:00	69.1	69.1	69.1	93	67.0	1	4	292	0.00	29.870 
15:05	68.9	68.9	68.9	92	66.5	2	5	292	0.00	29.870 
15:10	69.1	69.1	69.1	93	67.0	2	4	292	0.00	29.870 
15:15	69.1	69.1	69.1	92	66.7	2	4	292	0.00	29.869 
15:20	69.3	69.3	69.3	92	66.9	2	4	292	0.00	29.869 
15:25	68.9	68.9	68.9	92	66.5	2	4	270	0.00	29.869 
15:30	68.4	68.4	68.4	91	65.7	3	6	292	0.00	29.874 
15:35	68.3	68.3	68.3	91	65.6	2	6	292	0.00	29.874 
15:40	67.9	67.9	67.9	91	65.2	2	4	292	0.00	29.874 
15:45	67.8	67.8	67.8	91	65.1	2	4	292	0.00	29.881 
15:50	67.4	67.4	67.4	91	64.7	2	4	292	0.00	29.881 
15:55	67.3	67.3	67.3	91	64.6	1	3	315	0.00	29.881 
16:00	67.1	67.1	67.1	91	64.4	2	5	315	0.00	29.886 
16:05	66.6	66.6	66.6	90	63.6	2	5	315	0.00	29.886 
16:10	66.4	66.4	66.4	90	63.4	2	5	292	0.00	29.886 
16:15	66.4	66.4	66.4	90	63.4	1	5	292	0.00	29.890 
16:20	66.4	66.4	66.4	89	63.1	1	5	315	0.00	29.890 
16:25	66.6	66.6	66.6	89	63.3	2	4	315	0.00	29.890 
16:30	66.4	66.4	66.4	88	62.7	3	6	292	0.00	29.891 
16:35	66.6	66.6	66.6	87	62.6	2	6	292	0.00	29.891 
16:40	66.8	66.8	66.8	87	62.8	2	5	292	0.00	29.891 
16:45	66.9	66.9	66.9	86	62.6	1	4	315	0.00	29.892 
16:50	67.1	67.1	67.1	86	62.8	2	4	292	0.00	29.892 
16:55	67.1	67.1	67.1	85	62.4	2	5	292	0.00	29.892 
17:00	67.3	67.3	67.3	85	62.6	2	5	315	0.00	29.895 
17:05	67.6	67.6	67.6	84	62.6	2	5	315	0.00	29.895 
17:10	67.6	67.6	67.6	84	62.6	2	4	315	0.00	29.895 
17:15	67.6	67.6	67.6	84	62.6	1	4	315	0.00	29.892 
17:20	67.6	67.6	67.6	84	62.6	2	5	315	0.00	29.892 
17:25	67.8	67.8	67.8	84	62.8	1	4	338	0.00	29.892 
17:30	67.9	67.9	67.9	83	62.5	1	4	338	0.00	29.893 
17:35	68.3	68.3	68.3	83	62.9	1	4	315	0.00	29.893 
17:40	68.6	68.6	68.6	82	62.9	1	5	338	0.00	29.893 
17:45	68.6	68.6	68.6	81	62.5	1	4	338	0.00	29.891 
17:50	68.8	68.8	68.8	80	62.4	2	5	315	0.00	29.891 
17:55	68.8	68.8	68.8	79	62.0	2	6	292	0.00	29.891 
18:00	68.8	68.8	68.8	78	61.7	2	5	315	0.00	29.896 
18:05	68.8	68.8	68.8	78	61.7	1	5	292	0.00	29.896 
18:10	68.8	68.8	68.8	77	61.3	2	5	338	0.00	29.896 
18:15	68.8	68.8	68.8	77	61.3	1	4	292	0.00	29.900 
18:20	68.8	68.8	68.8	78	61.7	1	3	315	0.00	29.900 
18:25	68.8	68.8	68.8	78	61.7	0	3	315	0.00	29.900 
18:30	68.9	68.9	68.9	79	62.1	0	2	315	0.00	29.902 
18:35	69.1	69.1	69.1	79	62.3	1	4	0	0.00	29.902 
18:40	69.1	69.1	69.1	78	61.9	1	4	292	0.00	29.902 
18:45	69.1	69.1	69.1	78	61.9	1	3	292	0.00	29.904 
18:50	68.9	68.9	68.9	79	62.1	0	2	292	0.00	29.904 
18:55	68.9	68.9	68.9	79	62.1	1	2	292	0.00	29.904 
19:00	68.9	68.9	68.9	79	62.1	0	2	292	0.00	29.904 
19:05	68.9	68.9	68.9	79	62.1	0	2	292	0.00	29.904 
19:10	68.9	68.9	68.9	80	62.5	0	2	292	0.00	29.904 
19:15	69.1	69.1	69.1	80	62.7	0	1	292	0.00	29.905 
19:20	69.1	69.1	69.1	80	62.7	0	2	292	0.00	29.905 
19:25	68.9	68.9	68.9	80	62.5	0	1	292	0.00	29.905 
19:30	68.9	68.9	68.9	80	62.5	0	0	---	0.00	29.909 
19:35	68.9	68.9	68.9	80	62.5	0	2	292	0.00	29.909 
19:40	68.9	68.9	68.9	81	62.8	0	1	292	0.00	29.909 
19:45	68.9	68.9	68.9	81	62.8	0	0	---	0.00	29.917 
19:50	68.9	68.9	68.9	82	63.2	0	0	---	0.00	29.917 
19:55	68.8	68.8	68.8	82	63.1	0	0	---	0.00	29.917 
20:00	68.6	68.6	68.6	83	63.2	0	0	---	0.00	29.919 
20:05	68.6	68.6	68.6	83	63.2	0	0	---	0.00	29.919 
20:10	68.4	68.4	68.4	83	63.0	0	0	---	0.00	29.919 
20:15	68.4	68.4	68.4	83	63.0	0	0	---	0.00	29.919 
20:20	68.3	68.3	68.3	83	62.9	0	0	---	0.00	29.919 
20:25	68.3	68.3	68.3	84	63.3	0	0	---	0.00	29.919 
20:30	68.3	68.3	68.3	84	63.3	0	0	---	0.00	29.921 
20:35	68.3	68.3	68.3	84	63.3	0	0	---	0.00	29.921 
20:40	68.3	68.3	68.3	84	63.3	0	1	292	0.00	29.921 
20:45	68.3	68.3	68.3	83	62.9	0	1	292	0.00	29.929 
20:50	68.1	68.1	68.1	81	62.0	0	3	292	0.00	29.929 
20:55	68.1	68.1	68.1	79	61.3	1	4	292	0.00	29.929 
21:00	68.1	68.1	68.1	78	61.0	1	4	292	0.00	29.929 
21:05	68.1	68.1	68.1	78	61.0	1	6	292	0.00	29.929 
21:10	67.9	67.9	67.9	78	60.8	0	3	292	0.00	29.929 
21:15	67.9	67.9	67.9	77	60.4	1	4	292	0.00	29.938 
21:20	67.8	67.8	67.8	77	60.3	1	3	292	0.00	29.938 
21:25	67.8	67.8	67.8	77	60.3	0	2	292	0.00	29.938 
21:30	67.6	67.6	67.6	77	60.1	1	3	292	0.00	29.939 
21:35	67.4	67.4	67.4	77	59.9	1	3	292	0.00	29.939 
21:40	67.3	67.3	67.3	77	59.8	1	3	292	0.00	29.939 
21:45	67.3	67.3	67.3	77	59.8	0	2	292	0.00	29.952 
21:50	67.1	67.1	67.1	77	59.6	0	3	292	0.00	29.952 
21:55	66.9	66.9	66.9	77	59.4	0	2	292	0.00	29.952 
22:00	66.8	66.8	66.8	77	59.3	1	3	292	0.00	29.960 
22:05	66.8	66.8	66.8	77	59.3	0	1	292	0.00	29.960 
22:10	66.6	66.6	66.6	76	58.8	1	2	292	0.00	29.960 
22:15	66.6	66.6	66.6	77	59.2	0	2	292	0.00	29.968 
22:20	66.4	66.4	66.4	76	58.6	0	2	292	0.00	29.968 
22:25	66.4	66.4	66.4	77	59.0	0	2	292	0.00	29.968 
22:30	66.3	66.3	66.3	77	58.9	1	2	292	0.00	29.973 
22:35	66.3	66.3	66.3	77	58.9	1	3	292	0.00	29.973 
22:40	66.3	66.3	66.3	77	58.9	0	1	292	0.00	29.973 
22:45	66.1	66.1	66.1	77	58.7	1	3	292	0.00	29.982 
22:50	66.0	66.0	66.0	77	58.6	1	3	292	0.00	29.982 
22:55	66.0	66.0	66.0	77	58.6	0	3	292	0.00	29.982 
23:00	65.8	65.8	65.8	77	58.4	0	2	292	0.00	29.987 
23:05	65.6	65.6	65.6	77	58.2	0	2	292	0.00	29.987 
23:10	65.6	65.6	65.6	78	58.5	1	3	292	0.00	29.987 
23:15	65.5	65.5	65.5	78	58.5	0	2	292	0.00	29.986 
23:20	65.3	65.3	65.3	78	58.3	1	2	292	0.00	29.986 
23:25	65.2	65.2	65.2	78	58.2	0	3	292	0.00	29.986 
23:30	65.2	65.2	65.2	79	58.5	0	3	292	0.00	29.989 
23:35	65.0	65.0	65.0	79	58.3	0	1	292	0.00	29.989 
23:40	65.0	65.0	65.0	80	58.7	0	0	---	0.00	29.989 
23:45	65.0	65.0	65.0	80	58.7	0	0	---	0.00	29.992 
23:50	65.0	65.0	65.0	81	59.0	0	1	292	0.00	29.992 
23:55	65.0	65.0	65.0	81	59.0	0	1	292	0.00	29.992 

CoCoRaHS
IN-AL-39
A2 Web Hosting
Creative Commons License
GoDaddy
search engine by freefind advanced

loaded 2018-11-15 16:03:52 • last modified 2010-11-18 10:43:29
Privacy PolicyDisclaimer
• wx.awcolley.com is powered by PmWiki v.2002016 •
• all content (unless otherwise noted) © 2018 A W Colley